Time;durP1;ratioP1;P1;durP2;ratioP2;P2;SDS_P1;SDS_P2;PMS_P1;PMS_P2;Temp;Humidity;BMP_temperature;BMP_pressure;BME280_temperature;BME280_humidity;BME280_pressure;Samples;Min_cycle;Max_cycle;Signal;HPM_P1;HPM_P2
2023/05/05 00:01:49;;;;;;;20.40;14.30;;;;;;;10.29;88.41;100684.30;186823;1235;43651;-60
2023/05/05 00:05:56;;;;;;;26.00;15.50;;;;;;;10.10;89.51;100685.88;186818;1236;58283;-60
2023/05/05 00:09:58;;;;;;;24.70;14.40;;;;;;;10.04;89.98;100680.11;186750;1236;43078;-60
2023/05/05 00:13:59;;;;;;;22.30;15.70;;;;;;;10.08;90.22;100675.09;186861;1236;43016;-60
2023/05/05 00:18:01;;;;;;;23.10;17.30;;;;;;;10.09;91.22;100672.48;186849;1239;43084;-60
2023/05/05 00:22:02;;;;;;;21.10;15.60;;;;;;;10.00;92.13;100666.78;186850;1236;42957;-60
2023/05/05 00:26:04;;;;;;;16.00;12.00;;;;;;;9.83;93.35;100673.33;186802;1236;43769;-60
2023/05/05 00:30:06;;;;;;;21.50;14.00;;;;;;;9.69;93.97;100672.20;186630;1238;43124;-60
2023/05/05 00:34:08;;;;;;;20.90;14.00;;;;;;;9.71;92.44;100668.69;186803;1235;43358;-60
2023/05/05 00:38:09;;;;;;;18.10;15.50;;;;;;;9.79;92.65;100663.52;186574;1238;43040;-60
2023/05/05 00:42:11;;;;;;;23.00;13.80;;;;;;;9.84;92.24;100663.81;186875;1239;44113;-60
2023/05/05 00:46:25;;;;;;;18.70;14.10;;;;;;;9.91;92.98;100656.66;186787;1236;57019;-60
2023/05/05 00:50:29;;;;;;;21.60;14.20;;;;;;;9.97;93.63;100653.14;186780;1236;43852;-60
2023/05/05 00:54:30;;;;;;;23.00;14.40;;;;;;;10.06;93.54;100654.44;186824;1237;42961;-60
2023/05/05 00:58:32;;;;;;;18.70;13.40;;;;;;;10.15;92.74;100651.69;186787;1236;43802;-60
2023/05/05 01:02:34;;;;;;;16.50;12.70;;;;;;;10.16;91.17;100652.98;186773;1239;43685;-60
2023/05/05 01:06:38;;;;;;;22.60;14.50;;;;;;;10.09;90.43;100650.55;186764;1236;57891;-60
2023/05/05 01:10:53;;;;;;;17.70;12.70;;;;;;;10.09;89.50;100645.75;186795;1236;42929;-60
2023/05/05 01:15:21;;;;;;;38.70;15.80;;;;;;;10.14;88.94;100650.13;186797;1236;42982;-60
2023/05/05 01:19:33;;;;;;;28.70;16.60;;;;;;;10.11;88.68;100643.25;186675;1238;43053;-61
2023/05/05 01:23:59;;;;;;;25.90;17.40;;;;;;;10.06;89.21;100642.75;186857;1239;43333;-61
2023/05/05 01:28:30;;;;;;;21.60;14.00;;;;;;;9.92;90.05;100644.49;186592;1236;58288;-60
2023/05/05 01:32:37;;;;;;;19.80;14.30;;;;;;;9.74;91.05;100646.52;186648;1235;42977;-61
2023/05/05 01:36:43;;;;;;;25.60;14.80;;;;;;;9.65;90.68;100647.55;186773;1238;43132;-61
2023/05/05 01:40:48;;;;;;;16.40;13.10;;;;;;;9.62;90.93;100648.46;186768;1235;43684;-61
2023/05/05 01:44:51;;;;;;;15.60;12.10;;;;;;;9.36;92.52;100646.93;186824;1235;42928;-60
2023/05/05 01:48:55;;;;;;;19.20;14.10;;;;;;;9.17;92.92;100644.33;186741;1235;57920;-61
2023/05/05 01:52:57;;;;;;;16.60;13.00;;;;;;;9.13;93.58;100641.63;186762;1236;43607;-61
2023/05/05 01:57:03;;;;;;;19.60;14.20;;;;;;;9.05;93.40;100632.08;186581;1235;42974;-60
2023/05/05 02:01:05;;;;;;;16.90;11.80;;;;;;;8.95;93.49;100629.36;186576;1235;43355;-61
2023/05/05 02:05:08;;;;;;;25.10;15.10;;;;;;;8.91;93.68;100628.96;186794;1235;42973;-61
2023/05/05 02:09:11;;;;;;;19.60;15.60;;;;;;;8.87;95.73;100620.61;186780;1235;58047;-61
2023/05/05 02:13:40;;;;;;;20.10;13.90;;;;;;;8.78;96.43;100619.08;186845;1237;43328;-61
2023/05/05 02:17:44;;;;;;;21.80;14.50;;;;;;;8.78;97.05;100615.35;186577;1235;42940;-61
2023/05/05 02:21:45;;;;;;;25.40;15.50;;;;;;;8.80;97.53;100617.85;186781;1235;43007;-61
2023/05/05 02:25:54;;;;;;;20.40;15.30;;;;;;;8.81;97.44;100614.77;186551;1239;42982;-61
2023/05/05 02:30:00;;;;;;;19.20;14.10;;;;;;;8.87;97.47;100612.95;186752;1236;58463;-61
2023/05/05 02:34:06;;;;;;;23.50;15.00;;;;;;;8.98;97.22;100614.87;186755;1235;42986;-61
2023/05/05 02:38:16;;;;;;;32.20;15.30;;;;;;;9.11;96.27;100617.85;186750;1235;43707;-61
2023/05/05 02:42:21;;;;;;;50.60;17.40;;;;;;;9.17;95.42;100622.58;186514;1237;43038;-61
2023/05/05 02:46:22;;;;;;;51.20;17.50;;;;;;;9.18;94.58;100625.66;186563;1236;43674;-61
2023/05/05 02:50:23;;;;;;;31.60;16.20;;;;;;;9.18;94.28;100629.98;186733;1235;57414;-61
2023/05/05 02:54:26;;;;;;;21.50;13.30;;;;;;;9.03;93.87;100630.11;186791;1235;43090;-61
2023/05/05 02:58:33;;;;;;;18.10;11.30;;;;;;;8.87;93.35;100635.96;186776;1238;43583;-61
2023/05/05 03:03:28;;;;;;;17.80;13.10;;;;;;;8.88;93.71;100635.56;186722;1239;43869;-61
2023/05/05 03:07:37;;;;;;;22.40;12.70;;;;;;;8.86;93.30;100641.89;185832;1241;43669;-60
2023/05/05 03:12:03;;;;;;;24.70;17.30;;;;;;;8.71;94.02;100639.88;185777;1241;58074;-61
2023/05/05 03:16:07;;;;;;;23.50;15.30;;;;;;;8.73;95.33;100640.80;185807;1241;43167;-61
2023/05/05 03:20:11;;;;;;;22.00;13.90;;;;;;;8.78;95.25;100639.94;185872;1241;43804;-61
2023/05/05 03:24:17;;;;;;;32.60;17.80;;;;;;;8.88;94.13;100640.66;185804;1241;43113;-60
2023/05/05 03:28:18;;;;;;;25.30;16.20;;;;;;;8.93;93.19;100635.71;185743;1246;43483;-61
2023/05/05 03:32:20;;;;;;;19.20;13.50;;;;;;;8.99;92.60;100637.59;185871;1241;60682;-60
2023/05/05 03:36:21;;;;;;;20.30;14.60;;;;;;;9.03;91.87;100639.64;186020;1235;43569;-60
2023/05/05 03:40:23;;;;;;;20.30;15.10;;;;;;;9.07;91.69;100641.86;186650;1237;43060;-60
2023/05/05 03:44:55;;;;;;;24.00;16.90;;;;;;;9.11;91.71;100642.66;186734;1237;43330;-60
2023/05/05 03:48:57;;;;;;;27.40;15.40;;;;;;;9.14;91.10;100637.80;186728;1235;42893;-60
2023/05/05 03:52:58;;;;;;;22.20;15.30;;;;;;;9.13;91.02;100630.45;186715;1236;57916;-60
2023/05/05 03:57:01;;;;;;;23.10;15.20;;;;;;;9.14;90.47;100634.64;186684;1239;42981;-60
2023/05/05 04:01:02;;;;;;;37.90;18.80;;;;;;;9.08;89.97;100633.45;186691;1235;43102;-60
2023/05/05 04:05:04;;;;;;;21.10;13.10;;;;;;;8.98;90.43;100634.83;186658;1236;43104;-61
2023/05/05 04:09:06;;;;;;;19.90;13.80;;;;;;;8.89;91.23;100633.86;186698;1235;43049;-61
2023/05/05 04:13:07;;;;;;;21.70;14.80;;;;;;;8.79;93.19;100637.21;186493;1239;58213;-60
2023/05/05 04:17:09;;;;;;;27.00;15.00;;;;;;;8.80;94.98;100637.48;186666;1235;43825;-61
2023/05/05 04:21:10;;;;;;;19.40;12.20;;;;;;;8.93;96.78;100646.71;186709;1235;43682;-60
2023/05/05 04:25:17;;;;;;;16.60;12.10;;;;;;;9.23;95.10;100653.81;186659;1237;43070;-61
2023/05/05 04:29:18;;;;;;;21.90;13.60;;;;;;;9.80;95.69;100648.90;186678;1239;43033;-60
2023/05/05 04:33:20;;;;;;;18.80;13.20;;;;;;;10.93;100.00;100647.27;186694;1235;58228;-60
2023/05/05 04:37:21;;;;;;;23.10;14.40;;;;;;;11.95;93.14;100644.58;186705;1235;43010;-61
2023/05/05 04:41:22;;;;;;;19.10;11.80;;;;;;;12.49;87.00;100640.91;186716;1235;42949;-60
2023/05/05 04:45:25;;;;;;;17.50;13.20;;;;;;;12.78;83.36;100641.11;186635;1235;43647;-61
2023/05/05 04:49:30;;;;;;;59.10;18.20;;;;;;;13.09;82.28;100644.31;186641;1235;42963;-61
2023/05/05 04:53:32;;;;;;;20.30;14.70;;;;;;;13.38;79.68;100647.54;186501;1235;60572;-61
2023/05/05 04:57:34;;;;;;;20.40;13.60;;;;;;;13.87;78.95;100646.77;186569;1235;43062;-60
2023/05/05 05:01:36;;;;;;;19.20;13.90;;;;;;;14.12;76.15;100650.40;186598;1235;42914;-60
2023/05/05 05:05:39;;;;;;;26.10;16.10;;;;;;;14.05;74.45;100651.80;186592;1235;43147;-61
2023/05/05 05:09:43;;;;;;;23.70;17.20;;;;;;;13.91;74.80;100656.77;186557;1235;43590;-60
2023/05/05 05:13:45;;;;;;;23.70;16.40;;;;;;;13.77;75.27;100666.58;186561;1235;59180;-61
2023/05/05 05:17:46;;;;;;;28.40;20.80;;;;;;;13.76;76.57;100670.77;186596;1235;43458;-60
2023/05/05 05:21:53;;;;;;;32.20;18.90;;;;;;;13.92;77.11;100675.60;186594;1235;43282;-60
2023/05/05 05:25:55;;;;;;;23.50;16.80;;;;;;;14.00;75.56;100678.41;186612;1235;43653;-61
2023/05/05 05:29:56;;;;;;;26.60;16.90;;;;;;;13.92;74.50;100680.60;186624;1236;43694;-61
2023/05/05 05:34:12;;;;;;;24.00;17.10;;;;;;;13.90;76.18;100682.24;186641;1235;57901;-60
2023/05/05 05:38:14;;;;;;;28.70;17.00;;;;;;;14.10;76.92;100685.20;186599;1235;43027;-61
2023/05/05 05:42:15;;;;;;;21.30;16.70;;;;;;;14.32;76.93;100683.08;186602;1235;43350;-60
2023/05/05 05:46:39;;;;;;;25.00;17.50;;;;;;;14.84;77.85;100682.45;186648;1235;42949;-61
2023/05/05 05:50:41;;;;;;;21.50;17.20;;;;;;;15.62;74.16;100688.29;186100;1235;43672;-89
2023/05/05 05:54:43;;;;;;;17.40;13.80;;;;;;;16.37;71.21;100689.97;185969;1235;59451;-89
2023/05/05 05:58:47;;;;;;;23.20;15.60;;;;;;;16.88;67.50;100681.78;185946;1235;43659;-87
2023/05/05 06:02:50;;;;;;;25.30;15.10;;;;;;;16.99;66.33;100688.09;185978;1235;43707;-87
2023/05/05 06:06:52;;;;;;;22.40;16.70;;;;;;;17.16;65.76;100691.70;185969;1234;44174;-88
2023/05/05 06:10:53;;;;;;;26.30;17.00;;;;;;;17.37;65.77;100688.50;185993;1235;44037;-87
2023/05/05 06:14:55;;;;;;;23.60;15.40;;;;;;;17.70;64.77;100690.48;185967;1235;58663;-87
2023/05/05 06:18:57;;;;;;;16.80;14.40;;;;;;;17.62;63.89;100692.40;186137;1235;43737;-88
2023/05/05 06:22:59;;;;;;;21.70;14.80;;;;;;;17.78;64.55;100698.02;186066;1234;43596;-88
2023/05/05 06:27:01;;;;;;;20.40;15.30;;;;;;;18.07;63.70;100702.68;185908;1235;43678;-88
2023/05/05 06:31:03;;;;;;;22.50;15.00;;;;;;;18.32;62.69;100697.04;186157;1235;43719;-88
2023/05/05 06:35:05;;;;;;;20.30;14.90;;;;;;;18.41;60.61;100695.17;186095;1235;59290;-87
2023/05/05 06:39:07;;;;;;;21.10;15.30;;;;;;;18.64;61.40;100697.29;186128;1234;43763;-87
2023/05/05 06:43:09;;;;;;;30.80;16.30;;;;;;;18.70;60.02;100696.95;186023;1234;44080;-87
2023/05/05 06:47:10;;;;;;;22.50;15.80;;;;;;;18.75;60.37;100689.16;186053;1235;43879;-89
2023/05/05 06:51:14;;;;;;;21.30;17.60;;;;;;;18.95;60.09;100690.33;185999;1235;43976;-87
2023/05/05 06:55:16;;;;;;;23.70;18.20;;;;;;;19.23;60.44;100687.61;185991;1235;57983;-86
2023/05/05 06:59:18;;;;;;;27.90;19.30;;;;;;;19.42;59.58;100689.04;186034;1235;43810;-88
2023/05/05 07:03:20;;;;;;;20.70;16.00;;;;;;;19.54;59.06;100687.71;185984;1235;43893;-88
2023/05/05 07:07:22;;;;;;;18.80;16.30;;;;;;;19.60;59.54;100687.05;185924;1235;43893;-88
2023/05/05 07:11:24;;;;;;;28.20;19.30;;;;;;;19.61;58.12;100683.88;185965;1235;43849;-88
2023/05/05 07:15:26;;;;;;;20.30;15.90;;;;;;;19.57;58.09;100685.27;185859;1234;57865;-88
2023/05/05 07:19:30;;;;;;;21.10;15.70;;;;;;;19.71;58.48;100685.98;186044;1235;43695;-88
2023/05/05 07:23:33;;;;;;;16.10;14.20;;;;;;;19.79;57.20;100685.44;186017;1235;43691;-88
2023/05/05 07:27:36;;;;;;;29.70;17.00;;;;;;;19.89;57.21;100686.30;186093;1236;43694;-87
2023/05/05 07:31:38;;;;;;;20.70;15.20;;;;;;;19.90;56.72;100693.94;185847;1235;43771;-88
2023/05/05 07:35:40;;;;;;;24.60;16.90;;;;;;;19.92;57.39;100692.52;185945;1235;59358;-87
2023/05/05 07:39:41;;;;;;;18.10;15.20;;;;;;;19.88;55.96;100688.98;185789;1235;43705;-87
2023/05/05 07:43:44;;;;;;;22.50;15.90;;;;;;;19.98;56.69;100685.99;185961;1235;43706;-86
2023/05/05 07:47:46;;;;;;;27.00;15.80;;;;;;;20.08;56.94;100686.11;185701;1235;43876;-85
2023/05/05 07:51:49;;;;;;;18.10;14.90;;;;;;;20.22;58.17;100688.65;185712;1235;43703;-86
2023/05/05 07:55:50;;;;;;;20.70;16.00;;;;;;;20.42;57.50;100689.20;185714;1235;57412;-87
2023/05/05 07:59:52;;;;;;;20.20;14.30;;;;;;;20.61;57.11;100688.07;185788;1234;43838;-86
2023/05/05 08:03:54;;;;;;;16.30;14.40;;;;;;;20.74;57.02;100686.57;186055;1235;43859;-86
2023/05/05 08:07:55;;;;;;;22.30;13.40;;;;;;;20.79;56.23;100683.80;185888;1235;44206;-86
2023/05/05 08:11:57;;;;;;;18.70;15.60;;;;;;;20.88;56.64;100677.71;185824;1234;43773;-87
2023/05/05 08:15:59;;;;;;;19.20;12.90;;;;;;;20.82;56.38;100678.17;185884;1235;57874;-86
2023/05/05 08:20:01;;;;;;;14.80;11.70;;;;;;;20.91;55.78;100674.45;185920;1234;43980;-86
2023/05/05 08:24:03;;;;;;;17.10;11.00;;;;;;;20.86;53.75;100672.77;185900;1237;43876;-85
2023/05/05 08:28:04;;;;;;;18.40;12.10;;;;;;;20.87;53.80;100672.27;185824;1234;43803;-85
2023/05/05 08:32:07;;;;;;;19.60;12.00;;;;;;;20.84;54.34;100670.50;185818;1237;43710;-85
2023/05/05 08:36:10;;;;;;;13.60;10.70;;;;;;;20.91;54.18;100668.16;185800;1235;58452;-85
2023/05/05 08:40:13;;;;;;;18.00;11.60;;;;;;;20.96;54.50;100667.86;185792;1235;44169;-84
2023/05/05 08:44:15;;;;;;;15.70;11.50;;;;;;;20.98;53.53;100664.59;185769;1235;44096;-84
2023/05/05 08:48:26;;;;;;;13.00;10.60;;;;;;;21.01;54.71;100663.01;185828;1235;43934;-85
2023/05/05 08:52:37;;;;;;;16.40;11.20;;;;;;;21.04;54.10;100661.59;185957;1236;43840;-84
2023/05/05 08:56:40;;;;;;;14.80;10.90;;;;;;;20.86;54.58;100664.46;185795;1235;59100;-86
2023/05/05 09:00:44;;;;;;;15.30;10.80;;;;;;;20.77;54.60;100664.77;185776;1235;43791;-85
2023/05/05 09:04:46;;;;;;;19.10;11.10;;;;;;;20.80;54.87;100663.48;186100;1234;44265;-86
2023/05/05 09:08:48;;;;;;;12.60;10.10;;;;;;;20.89;54.83;100659.36;185997;1235;44159;-86
2023/05/05 09:12:50;;;;;;;14.20;9.20;;;;;;;20.89;54.38;100656.11;185878;1235;43721;-85
2023/05/05 09:16:52;;;;;;;13.00;9.90;;;;;;;20.78;53.13;100656.00;185954;1235;57171;-86
2023/05/05 09:20:55;;;;;;;18.20;12.00;;;;;;;20.77;54.12;100654.86;185852;1234;44365;-86
2023/05/05 09:25:00;;;;;;;18.60;9.50;;;;;;;20.87;54.02;100659.48;185901;1235;43830;-86
2023/05/05 09:29:03;;;;;;;10.60;8.80;;;;;;;20.94;53.21;100656.59;186004;1234;44174;-86
2023/05/05 09:33:05;;;;;;;13.70;9.40;;;;;;;21.00;52.35;100646.73;186117;1235;44055;-85
2023/05/05 09:37:06;;;;;;;13.20;8.30;;;;;;;20.97;52.84;100640.98;185913;1235;57864;-85
2023/05/05 09:41:09;;;;;;;12.90;8.70;;;;;;;20.99;52.49;100642.49;185767;1235;43783;-85
2023/05/05 09:45:17;;;;;;;12.20;8.20;;;;;;;21.04;52.65;100644.76;185818;1235;43968;-86
2023/05/05 09:49:25;;;;;;;8.80;6.90;;;;;;;21.07;50.91;100645.34;185940;1235;43843;-87
2023/05/05 09:53:37;;;;;;;11.30;6.70;;;;;;;21.12;52.27;100647.32;185838;1235;43734;-87
2023/05/05 09:57:39;;;;;;;11.70;7.90;;;;;;;21.18;50.47;100649.91;185739;1234;59359;-86
2023/05/05 10:01:42;;;;;;;10.60;8.50;;;;;;;21.28;50.82;100648.95;185789;1237;44120;-86
2023/05/05 10:05:51;;;;;;;8.30;6.20;;;;;;;21.32;51.42;100650.96;185983;1235;43700;-86
2023/05/05 10:09:53;;;;;;;9.10;7.10;;;;;;;21.30;48.56;100651.59;185939;1235;43694;-86
2023/05/05 10:13:55;;;;;;;12.40;7.70;;;;;;;21.29;49.37;100651.04;185870;1235;43832;-87
2023/05/05 10:18:00;;;;;;;9.00;6.20;;;;;;;21.31;49.64;100645.70;185706;1235;58621;-86
2023/05/05 10:22:10;;;;;;;8.90;7.00;;;;;;;21.31;49.03;100645.40;185865;1235;43986;-87
2023/05/05 10:26:13;;;;;;;10.70;6.20;;;;;;;21.38;49.27;100642.36;186068;1235;43962;-85
2023/05/05 10:30:31;;;;;;;9.10;6.90;;;;;;;21.44;49.17;100639.63;185896;1235;43960;-87
2023/05/05 10:34:48;;;;;;;9.00;6.30;;;;;;;21.47;48.89;100639.27;185986;1235;43767;-86
2023/05/05 10:38:55;;;;;;;6.70;5.20;;;;;;;21.49;48.52;100638.44;186056;1234;59628;-86
2023/05/05 10:42:57;;;;;;;10.90;6.10;;;;;;;21.53;47.55;100634.65;185864;1235;44123;-86
2023/05/05 10:47:01;;;;;;;15.70;6.30;;;;;;;21.62;47.38;100626.73;186012;1235;43911;-85
2023/05/05 10:51:28;;;;;;;12.00;7.20;;;;;;;21.64;48.79;100623.13;185862;1235;43928;-86
2023/05/05 10:55:50;;;;;;;7.40;5.30;;;;;;;21.83;48.47;100618.57;186065;1235;43747;-86
2023/05/05 10:59:52;;;;;;;6.60;6.00;;;;;;;21.97;48.87;100613.24;185986;1237;58204;-86
2023/05/05 11:04:19;;;;;;;8.00;6.10;;;;;;;22.07;47.59;100604.09;185891;1235;43756;-86
2023/05/05 11:08:25;;;;;;;6.50;5.00;;;;;;;22.04;47.36;100597.05;186074;1235;43739;-87
2023/05/05 11:12:28;;;;;;;15.40;6.80;;;;;;;22.05;47.60;100594.88;185875;1235;43940;-86
2023/05/05 11:16:48;;;;;;;7.70;5.30;;;;;;;22.11;47.12;100594.33;185947;1235;43973;-86
2023/05/05 11:20:56;;;;;;;8.20;6.30;;;;;;;22.19;48.34;100592.69;186027;1235;58030;-87
2023/05/05 11:24:58;;;;;;;10.70;5.10;;;;;;;22.22;47.04;100590.52;186015;1235;44046;-86
2023/05/05 11:29:02;;;;;;;5.60;5.00;;;;;;;22.33;46.29;100583.09;185869;1235;44481;-85
2023/05/05 11:33:29;;;;;;;7.30;5.30;;;;;;;22.32;46.15;100576.95;185844;1235;44883;-85
2023/05/05 11:37:31;;;;;;;5.70;4.20;;;;;;;22.30;45.94;100577.89;186095;1235;43058;-84
2023/05/05 11:42:11;;;;;;;6.80;5.60;;;;;;;22.37;45.22;100573.33;185816;1237;59695;-85
2023/05/05 11:46:15;;;;;;;6.40;4.30;;;;;;;22.51;45.84;100567.89;184526;1244;326697;-85
2023/05/05 11:50:20;;;;;;;7.40;4.60;;;;;;;22.60;45.75;100564.34;184622;1244;43843;-85
2023/05/05 11:54:22;;;;;;;10.30;4.40;;;;;;;22.68;44.32;100562.02;184729;1244;43783;-85
2023/05/05 11:58:24;;;;;;;11.30;5.00;;;;;;;22.60;45.56;100559.30;184723;1244;43886;-84
2023/05/05 12:02:28;;;;;;;7.90;3.60;;;;;;;22.70;45.53;100554.05;184729;1244;57417;-85
2023/05/05 12:06:32;;;;;;;6.00;3.70;;;;;;;22.77;41.82;100558.02;184703;1245;44059;-83
2023/05/05 12:10:34;;;;;;;6.00;2.60;;;;;;;22.76;42.22;100553.13;184691;1244;43721;-84
2023/05/05 12:14:45;;;;;;;3.50;2.40;;;;;;;22.65;41.79;100555.70;184707;1243;43857;-85
2023/05/05 12:19:01;;;;;;;4.70;2.70;;;;;;;22.83;41.08;100556.30;185151;1235;43873;-85
2023/05/05 12:23:03;;;;;;;4.90;2.80;;;;;;;23.00;42.14;100553.25;185907;1235;60450;-85
2023/05/05 12:27:09;;;;;;;4.90;2.30;;;;;;;23.05;39.82;100550.48;186049;1237;44176;-86
2023/05/05 12:31:11;;;;;;;7.20;3.30;;;;;;;23.08;41.27;100544.56;185910;1235;43817;-85
2023/05/05 12:35:13;;;;;;;4.40;2.70;;;;;;;23.07;40.52;100541.30;185919;1235;43879;-85
2023/05/05 12:39:15;;;;;;;3.90;2.40;;;;;;;23.07;40.20;100544.39;185891;1238;43748;-86
2023/05/05 12:43:27;;;;;;;4.60;3.10;;;;;;;23.15;40.17;100535.11;185853;1238;59413;-86
2023/05/05 12:47:30;;;;;;;12.00;3.50;;;;;;;23.21;40.55;100534.73;186101;1235;44068;-87
2023/05/05 12:51:34;;;;;;;4.20;2.50;;;;;;;23.20;38.26;100533.33;185913;1235;44364;-85
2023/05/05 12:55:38;;;;;;;3.90;2.20;;;;;;;23.17;40.88;100530.91;186013;1235;43796;-87
2023/05/05 12:59:40;;;;;;;5.50;1.90;;;;;;;23.25;39.25;100532.58;185870;1237;44005;-87
2023/05/05 13:03:42;;;;;;;3.00;2.20;;;;;;;23.35;39.47;100528.27;185866;1238;59384;-87
2023/05/05 13:07:50;;;;;;;5.00;2.60;;;;;;;23.40;39.67;100526.67;185642;1235;43748;-88
2023/05/05 13:11:53;;;;;;;11.80;2.30;;;;;;;23.57;40.49;100521.67;185925;1235;44295;-87
2023/05/05 13:15:55;;;;;;;2.40;1.80;;;;;;;23.66;38.52;100519.11;185900;1235;43941;-87
2023/05/05 13:19:57;;;;;;;3.90;2.10;;;;;;;23.72;39.50;100512.48;185892;1235;43744;-87
2023/05/05 13:23:59;;;;;;;5.10;2.50;;;;;;;23.74;37.89;100508.03;185926;1235;57151;-86
2023/05/05 13:28:20;;;;;;;5.50;2.80;;;;;;;23.58;38.56;100505.10;185975;1236;43708;-89
2023/05/05 13:32:22;;;;;;;4.00;2.80;;;;;;;23.50;38.09;100498.36;185997;1235;43779;-87
2023/05/05 13:36:25;;;;;;;3.20;2.30;;;;;;;23.46;37.75;100495.31;185931;1235;43723;-87
2023/05/05 13:40:27;;;;;;;3.80;2.10;;;;;;;23.44;35.70;100487.63;185845;1235;44017;-87
2023/05/05 13:44:29;;;;;;;2.80;1.60;;;;;;;23.46;37.49;100480.29;185748;1235;59379;-86
2023/05/05 13:48:30;;;;;;;2.70;2.40;;;;;;;23.49;37.13;100478.41;185931;1235;43720;-85
2023/05/05 13:52:32;;;;;;;4.30;2.20;;;;;;;23.46;37.55;100470.45;185916;1235;43761;-85
2023/05/05 13:56:34;;;;;;;3.80;1.90;;;;;;;23.59;40.55;100470.35;185895;1235;44066;-86
2023/05/05 14:00:36;;;;;;;8.50;3.00;;;;;;;23.65;39.63;100466.06;185917;1235;43794;-86
2023/05/05 14:04:38;;;;;;;2.70;2.40;;;;;;;23.63;37.37;100464.05;185852;1235;59165;-87
2023/05/05 14:08:40;;;;;;;5.80;2.40;;;;;;;23.58;39.21;100461.20;186034;1235;43916;-86
2023/05/05 14:12:42;;;;;;;19.10;16.50;;;;;;;23.54;39.38;100458.83;185958;1235;43683;-86
2023/05/05 14:16:45;;;;;;;61.00;41.70;;;;;;;23.50;39.51;100451.55;186146;1235;43737;-86
2023/05/05 14:20:48;;;;;;;57.00;51.60;;;;;;;23.45;40.68;100451.42;185943;1235;43779;-87
2023/05/05 14:24:50;;;;;;;10.90;9.90;;;;;;;23.35;39.90;100452.33;185937;1235;57905;-87
2023/05/05 14:28:52;;;;;;;7.50;6.60;;;;;;;23.31;38.66;100447.44;186118;1235;43789;-87
2023/05/05 14:32:54;;;;;;;7.70;7.00;;;;;;;23.33;39.39;100448.31;185928;1236;43987;-86
2023/05/05 14:36:56;;;;;;;6.30;5.70;;;;;;;23.39;39.83;100443.02;185862;1237;43733;-87
2023/05/05 14:40:57;;;;;;;3.10;2.70;;;;;;;23.42;39.14;100440.86;185921;1236;44403;-86
2023/05/05 14:44:59;;;;;;;6.20;4.30;;;;;;;23.52;38.08;100437.60;185953;1235;57651;-86
2023/05/05 14:49:01;;;;;;;5.00;2.60;;;;;;;23.55;38.84;100430.16;185934;1235;44087;-87
2023/05/05 14:53:03;;;;;;;3.30;2.90;;;;;;;23.37;38.83;100429.58;185999;1235;43710;-86
2023/05/05 14:57:05;;;;;;;4.90;4.30;;;;;;;23.15;37.95;100421.20;185936;1236;43941;-86
2023/05/05 15:01:07;;;;;;;4.10;3.20;;;;;;;23.03;39.38;100423.40;185902;1235;43778;-86
2023/05/05 15:05:09;;;;;;;3.40;2.10;;;;;;;22.78;38.07;100418.34;185834;1235;58030;-87
2023/05/05 15:09:12;;;;;;;3.20;1.80;;;;;;;22.66;40.09;100421.87;185845;1236;43830;-86
2023/05/05 15:13:14;;;;;;;3.80;2.10;;;;;;;22.54;41.17;100426.65;185864;1237;43975;-86
2023/05/05 15:17:16;;;;;;;33.80;6.30;;;;;;;22.48;42.93;100419.77;185854;1235;43739;-86
2023/05/05 15:21:17;;;;;;;13.10;3.60;;;;;;;22.52;42.57;100417.92;185865;1235;43756;-86
2023/05/05 15:25:20;;;;;;;5.60;2.00;;;;;;;22.63;41.98;100418.14;185840;1235;59150;-86
2023/05/05 15:29:21;;;;;;;2.30;1.40;;;;;;;22.76;42.48;100416.48;185817;1237;44210;-85
2023/05/05 15:33:23;;;;;;;3.20;1.70;;;;;;;22.94;42.94;100418.70;185846;1239;44021;-84
2023/05/05 15:37:27;;;;;;;7.90;2.20;;;;;;;23.12;43.72;100411.35;186065;1234;43792;-85
2023/05/05 15:41:29;;;;;;;7.20;2.40;;;;;;;23.15;42.84;100411.42;185913;1235;43845;-84
2023/05/05 15:45:31;;;;;;;4.40;2.10;;;;;;;23.13;44.48;100407.05;185959;1235;60253;-84
2023/05/05 15:49:36;;;;;;;12.90;3.50;;;;;;;23.03;44.29;100402.73;186069;1235;43936;-87
2023/05/05 15:53:38;;;;;;;6.20;2.80;;;;;;;22.93;45.07;100400.80;186046;1234;44144;-85
2023/05/05 15:57:40;;;;;;;8.00;3.00;;;;;;;22.85;46.33;100398.85;185825;1235;43832;-87
2023/05/05 16:01:41;;;;;;;2.90;1.90;;;;;;;22.64;45.79;100392.11;185825;1234;43990;-86
2023/05/05 16:05:43;;;;;;;5.70;3.30;;;;;;;22.52;46.46;100391.36;186003;1237;58047;-87
2023/05/05 16:10:03;;;;;;;4.20;2.70;;;;;;;22.44;46.55;100388.77;186126;1235;43702;-85
2023/05/05 16:14:15;;;;;;;4.50;2.60;;;;;;;22.41;45.92;100390.71;185981;1239;43648;-85
2023/05/05 16:18:17;;;;;;;6.70;3.90;;;;;;;22.43;46.82;100393.59;185882;1238;43689;-86
2023/05/05 16:22:19;;;;;;;10.90;4.80;;;;;;;22.43;47.53;100388.55;185913;1235;43703;-86
2023/05/05 16:26:21;;;;;;;6.50;4.00;;;;;;;22.46;47.82;100390.31;186058;1235;58550;-86
2023/05/05 16:30:24;;;;;;;6.00;3.10;;;;;;;22.37;48.28;100386.48;185837;1235;43778;-86
2023/05/05 16:34:25;;;;;;;6.40;3.10;;;;;;;22.20;48.59;100383.02;186068;1239;43639;-85
2023/05/05 16:38:27;;;;;;;31.10;7.50;;;;;;;22.03;48.75;100382.33;186055;1235;43751;-86
2023/05/05 16:42:29;;;;;;;10.20;4.20;;;;;;;21.68;51.02;100385.17;185908;1235;43689;-86
2023/05/05 16:46:31;;;;;;;6.90;3.60;;;;;;;21.38;52.06;100379.01;185846;1236;57791;-86
2023/05/05 16:50:33;;;;;;;8.90;2.80;;;;;;;21.05;53.35;100384.29;185842;1235;43862;-86
2023/05/05 16:54:34;;;;;;;5.80;3.00;;;;;;;20.94;54.46;100386.18;185885;1235;44056;-86
2023/05/05 16:58:36;;;;;;;3.90;2.80;;;;;;;20.83;54.58;100387.42;185842;1237;43656;-86
2023/05/05 17:02:38;;;;;;;3.60;2.40;;;;;;;20.69;56.23;100385.84;185801;1239;43764;-86
2023/05/05 17:06:40;;;;;;;4.80;2.60;;;;;;;20.60;55.76;100385.92;186079;1235;58097;-86
2023/05/05 17:10:43;;;;;;;4.30;2.30;;;;;;;20.50;55.97;100390.59;185905;1235;43697;-86
2023/05/05 17:14:45;;;;;;;5.70;2.40;;;;;;;20.39;56.20;100388.59;185872;1235;43729;-86
2023/05/05 17:18:46;;;;;;;4.20;2.40;;;;;;;20.28;55.94;100386.73;185998;1235;43770;-86
2023/05/05 17:22:48;;;;;;;3.70;2.30;;;;;;;20.19;57.56;100389.03;186057;1236;43693;-86
2023/05/05 17:26:50;;;;;;;5.00;2.80;;;;;;;20.07;56.67;100389.70;185845;1235;57991;-86
2023/05/05 17:30:52;;;;;;;5.10;2.60;;;;;;;19.95;55.58;100390.69;186015;1237;43761;-86
2023/05/05 17:34:55;;;;;;;5.50;2.80;;;;;;;19.86;55.45;100395.34;185913;1235;43777;-86
2023/05/05 17:38:56;;;;;;;4.60;2.80;;;;;;;19.77;55.74;100398.15;186026;1237;43905;-86
2023/05/05 17:42:58;;;;;;;5.80;2.40;;;;;;;19.67;55.68;100401.45;185655;1235;43860;-86
2023/05/05 17:47:01;;;;;;;4.30;2.30;;;;;;;19.57;55.83;100406.40;186066;1235;58741;-86
2023/05/05 17:51:03;;;;;;;5.30;3.80;;;;;;;19.47;56.28;100403.98;186082;1237;43698;-86
2023/05/05 17:55:05;;;;;;;4.80;3.30;;;;;;;19.35;56.40;100404.85;185852;1234;43663;-86
2023/05/05 17:59:07;;;;;;;5.40;3.20;;;;;;;19.23;56.59;100407.86;185798;1237;43616;-86
2023/05/05 18:03:09;;;;;;;4.20;3.40;;;;;;;19.06;57.22;100410.20;185669;1236;43997;-86
2023/05/05 18:07:13;;;;;;;4.90;3.40;;;;;;;18.92;57.79;100414.10;185999;1235;58327;-87
2023/05/05 18:11:15;;;;;;;8.40;3.60;;;;;;;18.79;58.02;100413.60;185783;1236;43734;-86
2023/05/05 18:15:17;;;;;;;6.60;3.80;;;;;;;18.69;58.03;100419.41;185887;1239;43938;-86
2023/05/05 18:19:20;;;;;;;5.40;3.60;;;;;;;18.57;58.30;100418.48;185875;1237;44016;-86
2023/05/05 18:23:22;;;;;;;7.80;4.20;;;;;;;18.44;58.18;100419.55;185912;1235;43841;-86
2023/05/05 18:27:25;;;;;;;6.20;3.90;;;;;;;18.32;58.38;100422.02;186074;1235;58411;-86
2023/05/05 18:31:27;;;;;;;5.40;4.10;;;;;;;18.15;58.49;100418.84;185843;1235;43880;-86